Time;durP1;ratioP1;P1;durP2;ratioP2;P2;SDS_P1;SDS_P2;PMS_P1;PMS_P2;Temp;Humidity;BMP_temperature;BMP_pressure;BME280_temperature;BME280_humidity;BME280_pressure;Samples;Min_cycle;Max_cycle;Signal;HPM_P1;HPM_P2
2024/01/01 00:01:01;;;;;;;101.90;58.10;;;;;;;6.05;100.00;63564.91;5092272;28;20262;-55
2024/01/01 00:03:27;;;;;;;110.77;56.70;;;;;;;6.24;100.00;63585.59;5093642;28;20215;-53
2024/01/01 00:05:52;;;;;;;104.03;58.97;;;;;;;6.13;100.00;63571.13;5093535;28;20675;-53
2024/01/01 00:08:18;;;;;;;105.87;56.63;;;;;;;6.15;100.00;63573.28;5093274;28;20208;-54
2024/01/01 00:10:44;;;;;;;99.57;55.53;;;;;;;5.81;100.00;63536.78;5093552;28;20180;-55
2024/01/01 00:13:09;;;;;;;109.40;58.40;;;;;;;5.93;100.00;63551.84;5093152;28;20652;-53
2024/01/01 00:15:35;;;;;;;99.00;53.90;;;;;;;6.12;100.00;63572.53;5093255;28;20202;-55
2024/01/01 00:18:01;;;;;;;103.27;56.97;;;;;;;6.16;100.00;63574.38;5093293;28;20228;-56
2024/01/01 00:20:26;;;;;;;100.77;55.30;;;;;;;6.05;100.00;63564.91;5093272;28;20670;-53
2024/01/01 00:22:52;;;;;;;108.57;55.17;;;;;;;5.99;100.00;63555.31;5075193;28;20230;-53
2024/01/01 00:25:18;;;;;;;110.23;56.83;;;;;;;5.97;100.00;63553.13;5092990;28;20241;-54
2024/01/01 00:27:44;;;;;;;111.50;55.97;;;;;;;6.05;100.00;63564.34;5093214;28;20219;-56
2024/01/01 00:30:10;;;;;;;105.33;58.50;;;;;;;5.96;100.00;63552.59;5074930;28;20280;-55
2024/01/01 00:32:36;;;;;;;110.30;56.43;;;;;;;5.92;100.00;63548.78;5093107;28;20295;-53
2024/01/01 00:35:02;;;;;;;101.77;56.80;;;;;;;5.99;100.00;63555.31;5092354;28;20186;-59
2024/01/01 00:37:27;;;;;;;96.27;55.33;;;;;;;6.00;100.00;63559.44;5092739;28;20246;-53
2024/01/01 00:39:54;;;;;;;101.20;55.53;;;;;;;5.99;100.00;63558.38;5093017;28;20195;-55
2024/01/01 00:42:20;;;;;;;115.33;59.57;;;;;;;6.26;100.00;63587.25;5092919;28;20266;-56
2024/01/01 00:44:46;;;;;;;105.70;56.93;;;;;;;6.07;100.00;63564.59;5092914;28;20192;-54
2024/01/01 00:47:12;;;;;;;97.93;54.23;;;;;;;6.06;100.00;63565.97;5092762;28;20685;-58
2024/01/01 00:49:37;;;;;;;104.13;56.90;;;;;;;6.10;100.00;63570.34;5092765;28;20192;-53
2024/01/01 00:52:03;;;;;;;108.07;59.40;;;;;;;6.10;100.00;63569.81;5092778;28;20689;-52
2024/01/01 00:54:30;;;;;;;119.17;59.93;;;;;;;5.95;100.00;63554.00;5092563;28;20208;-54
2024/01/01 00:56:57;;;;;;;112.83;59.30;;;;;;;5.98;100.00;63557.25;5092442;28;20257;-55
2024/01/01 00:59:23;;;;;;;118.77;61.23;;;;;;;6.11;100.00;63571.44;5092524;28;20193;-54
2024/01/01 01:01:49;;;;;;;128.40;66.27;;;;;;;6.07;100.00;63566.53;5092948;28;20203;-54
2024/01/01 01:04:15;;;;;;;121.67;63.13;;;;;;;5.96;100.00;63552.59;5092451;28;20273;-54
2024/01/01 01:06:40;;;;;;;134.53;66.60;;;;;;;6.10;100.00;63569.81;5074385;28;20271;-58
2024/01/01 01:09:06;;;;;;;124.37;67.60;;;;;;;6.17;100.00;63577.97;5074373;28;20280;-56
2024/01/01 01:11:31;;;;;;;118.83;68.23;;;;;;;5.97;100.00;63556.19;5074206;28;20184;-57
2024/01/01 01:13:57;;;;;;;123.97;61.67;;;;;;;5.98;100.00;63556.75;5092382;28;20463;-53
2024/01/01 01:16:23;;;;;;;107.63;61.30;;;;;;;5.99;100.00;63558.38;5092318;28;20187;-55
2024/01/01 01:18:49;;;;;;;123.63;62.60;;;;;;;6.07;100.00;63564.59;5074285;28;20227;-56
2024/01/01 01:21:15;;;;;;;118.67;62.33;;;;;;;6.22;100.00;63583.41;5074149;28;20207;-54
2024/01/01 01:23:41;;;;;;;125.13;65.47;;;;;;;6.04;100.00;63561.31;5092578;28;20593;-54
2024/01/01 01:26:07;;;;;;;125.87;66.73;;;;;;;6.03;100.00;63562.19;5092027;28;20188;-55
2024/01/01 01:28:33;;;;;;;120.03;62.83;;;;;;;6.15;100.00;63575.25;5073843;28;20230;-55
2024/01/01 01:30:58;;;;;;;129.30;65.47;;;;;;;6.24;100.00;63585.06;5073967;28;20185;-55
2024/01/01 01:33:24;;;;;;;118.83;61.40;;;;;;;6.02;100.00;63561.63;5092292;28;20305;-56
2024/01/01 01:35:50;;;;;;;125.47;64.47;;;;;;;5.89;100.00;63545.53;5091975;28;20188;-54
2024/01/01 01:38:15;;;;;;;117.80;64.60;;;;;;;6.02;100.00;63556.63;5092074;28;20212;-54
2024/01/01 01:40:41;;;;;;;123.10;64.97;;;;;;;6.01;100.00;63558.03;5092002;28;20219;-55
2024/01/01 01:43:24;;;;;;;120.03;64.97;;;;;;;6.12;100.00;63567.53;5091950;28;20239;-54
2024/01/01 01:45:52;;;;;;;123.90;64.97;;;;;;;5.93;100.00;63552.38;5090752;28;20184;-54
2024/01/01 01:48:17;;;;;;;133.00;66.90;;;;;;;5.97;100.00;63558.13;5092122;28;20222;-55
2024/01/01 01:50:45;;;;;;;129.30;67.47;;;;;;;5.88;100.00;63544.41;5073651;28;20192;-55
2024/01/01 01:53:12;;;;;;;101.50;54.37;;;;;;;5.98;100.00;63552.25;5073926;28;20219;-55
2024/01/01 01:55:42;;;;;;;47.57;25.03;;;;;;;5.68;100.00;63525.13;5091955;28;20210;-54
2024/01/01 01:58:08;;;;;;;31.77;19.87;;;;;;;5.47;100.00;63502.25;5091749;28;20211;-56
2024/01/01 02:00:34;;;;;;;32.87;20.20;;;;;;;5.32;100.00;63482.88;5091528;28;20192;-55
2024/01/01 02:03:00;;;;;;;37.67;20.70;;;;;;;5.31;100.00;63484.84;5091519;28;20264;-54
2024/01/01 02:05:25;;;;;;;38.27;22.60;;;;;;;5.43;100.00;63497.91;5091630;28;20196;-54
2024/01/01 02:07:51;;;;;;;30.97;18.77;;;;;;;5.39;100.00;63488.56;5091682;28;20634;-53
2024/01/01 02:10:17;;;;;;;30.53;16.90;;;;;;;5.48;100.00;63500.28;5091644;28;20192;-53
2024/01/01 02:12:45;;;;;;;32.30;17.57;;;;;;;5.49;100.00;63503.88;5091628;28;20223;-54
2024/01/01 02:15:10;;;;;;;29.93;18.20;;;;;;;5.46;100.00;63498.66;5091464;28;20254;-55
2024/01/01 02:17:35;;;;;;;29.53;16.60;;;;;;;5.63;100.00;63519.69;5091582;28;20211;-53
2024/01/01 02:20:01;;;;;;;27.47;17.33;;;;;;;5.83;100.00;63541.50;5091534;28;20188;-52
2024/01/01 02:22:37;;;;;;;32.90;18.67;;;;;;;5.70;100.00;63527.28;5091427;28;20575;-53
2024/01/01 02:25:03;;;;;;;33.67;19.47;;;;;;;5.97;100.00;63556.19;5091241;28;20574;-64
2024/01/01 02:27:28;;;;;;;32.87;17.83;;;;;;;5.72;100.00;63528.94;5091283;28;20219;-53
2024/01/01 02:29:54;;;;;;;37.30;19.57;;;;;;;5.50;100.00;63504.97;5091278;28;20562;-54
2024/01/01 02:32:19;;;;;;;31.33;18.83;;;;;;;5.53;100.00;63511.28;5073080;28;20207;-52
2024/01/01 02:34:47;;;;;;;29.40;18.33;;;;;;;5.58;100.00;63511.72;5091130;28;20623;-53
2024/01/01 02:37:13;;;;;;;31.93;19.13;;;;;;;5.67;100.00;63523.50;5091278;28;20211;-53
2024/01/01 02:39:38;;;;;;;31.27;19.00;;;;;;;5.68;100.00;63524.56;5091199;28;20192;-54
2024/01/01 02:42:05;;;;;;;34.10;19.43;;;;;;;5.70;100.00;63526.75;5091119;28;20204;-53
2024/01/01 02:44:30;;;;;;;29.90;17.27;;;;;;;5.56;100.00;63509.00;5091111;28;20202;-56
2024/01/01 02:46:56;;;;;;;28.27;17.53;;;;;;;5.53;100.00;63508.25;5091045;28;20294;-55
2024/01/01 02:49:21;;;;;;;33.90;19.00;;;;;;;5.60;100.00;63515.84;5091128;28;20188;-54
2024/01/01 02:51:47;;;;;;;32.83;19.17;;;;;;;5.55;100.00;63510.97;5091131;28;20346;-55
2024/01/01 02:54:12;;;;;;;33.87;20.00;;;;;;;5.66;100.00;63519.91;5090925;28;20243;-55
2024/01/01 02:56:38;;;;;;;36.13;20.63;;;;;;;5.61;100.00;63514.47;5073302;28;20620;-54
2024/01/01 02:59:03;;;;;;;32.37;17.77;;;;;;;5.67;100.00;63521.00;5097772;28;20184;-54
2024/01/01 03:01:29;;;;;;;35.77;18.63;;;;;;;5.50;100.00;63502.47;5079362;28;20184;-60
2024/01/01 03:03:55;;;;;;;28.90;16.93;;;;;;;5.19;100.00;63468.72;5097731;28;20196;-55
2024/01/01 03:06:20;;;;;;;30.97;17.77;;;;;;;5.03;100.00;63454.34;5079259;28;20248;-56
2024/01/01 03:08:46;;;;;;;29.97;17.00;;;;;;;5.01;100.00;63449.69;5079404;28;20677;-54
2024/01/01 03:11:12;;;;;;;27.87;15.97;;;;;;;4.95;100.00;63446.19;5097464;28;20579;-54
2024/01/01 03:13:37;;;;;;;27.47;16.10;;;;;;;5.04;100.00;63455.44;5097170;28;20230;-54
2024/01/01 03:16:04;;;;;;;29.33;16.23;;;;;;;5.01;100.00;63450.22;5097403;28;20179;-55
2024/01/01 03:18:30;;;;;;;26.87;16.07;;;;;;;4.99;100.00;63450.53;5079430;28;20211;-56
2024/01/01 03:20:56;;;;;;;27.53;17.03;;;;;;;4.91;100.00;63443.78;5097263;28;20229;-54
2024/01/01 03:23:21;;;;;;;27.27;16.03;;;;;;;4.80;100.00;63429.31;5097582;28;20216;-57
2024/01/01 03:25:47;;;;;;;29.67;16.97;;;;;;;4.86;100.00;63436.41;5097240;28;20180;-55
2024/01/01 03:28:12;;;;;;;27.47;15.77;;;;;;;4.97;100.00;63448.38;5097688;28;20311;-57
2024/01/01 03:30:38;;;;;;;27.57;16.33;;;;;;;5.10;100.00;63462.53;5097386;28;20642;-54
2024/01/01 03:33:03;;;;;;;29.30;16.10;;;;;;;5.17;100.00;63464.06;5097363;28;20705;-62
2024/01/01 03:35:31;;;;;;;32.37;17.57;;;;;;;5.34;100.00;63490.59;5078935;28;20192;-55
2024/01/01 03:37:57;;;;;;;29.60;16.43;;;;;;;5.21;100.00;63473.41;5097239;28;20322;-55
2024/01/01 03:40:23;;;;;;;33.53;17.23;;;;;;;4.94;100.00;63442.63;5097094;28;20187;-54
2024/01/01 03:42:49;;;;;;;32.53;17.97;;;;;;;4.85;100.00;63435.31;5096873;28;20212;-55
2024/01/01 03:45:15;;;;;;;31.63;17.77;;;;;;;5.01;100.00;63452.72;5097114;28;20195;-55
2024/01/01 03:47:40;;;;;;;31.50;18.00;;;;;;;4.93;100.00;63440.97;5097221;28;20235;-56
2024/01/01 03:50:06;;;;;;;36.23;20.63;;;;;;;4.98;100.00;63449.47;5078931;28;20245;-54
2024/01/01 03:52:32;;;;;;;50.83;23.37;;;;;;;5.09;100.00;63460.88;5097045;28;20196;-56
2024/01/01 03:54:58;;;;;;;44.60;22.03;;;;;;;4.93;100.00;63443.47;5078933;28;20184;-53
2024/01/01 03:57:24;;;;;;;40.03;23.30;;;;;;;4.87;100.00;63437.47;5078843;28;20632;-54
2024/01/01 03:59:49;;;;;;;40.00;23.30;;;;;;;4.95;100.00;63446.19;5097000;28;20191;-54
2024/01/01 04:02:15;;;;;;;36.53;20.60;;;;;;;4.87;100.00;63435.00;5096968;28;20720;-58
2024/01/01 04:04:44;;;;;;;38.00;22.70;;;;;;;5.11;100.00;63460.56;5096901;28;20653;-55
2024/01/01 04:07:10;;;;;;;40.50;22.23;;;;;;;5.11;100.00;63463.59;5096114;28;20208;-54
2024/01/01 04:09:36;;;;;;;44.53;21.53;;;;;;;5.05;100.00;63456.53;5091350;28;20184;-55
2024/01/01 04:12:01;;;;;;;34.23;20.60;;;;;;;4.95;100.00;63441.19;5073339;28;20212;-55
2024/01/01 04:14:27;;;;;;;47.63;21.40;;;;;;;4.95;100.00;63445.63;5091523;28;20649;-56
2024/01/01 04:16:52;;;;;;;42.97;24.30;;;;;;;4.83;100.00;63435.63;5073521;28;20257;-54
2024/01/01 04:19:18;;;;;;;45.60;23.93;;;;;;;5.01;100.00;63455.22;5092827;28;20249;-54
2024/01/01 04:21:43;;;;;;;42.03;23.97;;;;;;;4.92;100.00;63442.94;5093408;28;20199;-56
2024/01/01 04:24:09;;;;;;;37.37;21.70;;;;;;;4.89;100.00;63439.66;5075027;28;20689;-59
2024/01/01 04:26:37;;;;;;;40.43;21.80;;;;;;;4.74;100.00;63425.84;5093271;28;20191;-55
2024/01/01 04:29:03;;;;;;;39.20;20.73;;;;;;;4.66;100.00;63411.59;5093224;28;20208;-55
2024/01/01 04:31:28;;;;;;;41.53;22.43;;;;;;;4.69;100.00;63420.41;5093233;28;20265;-56
2024/01/01 04:33:54;;;;;;;41.90;21.87;;;;;;;4.79;100.00;63431.28;5093166;28;20239;-54
2024/01/01 04:36:20;;;;;;;43.30;22.13;;;;;;;4.90;100.00;63440.75;5093225;28;20215;-53
2024/01/01 04:38:47;;;;;;;36.60;19.40;;;;;;;4.80;100.00;63429.88;5092962;28;20224;-54
2024/01/01 04:41:13;;;;;;;35.13;20.77;;;;;;;4.82;100.00;63429.56;5093029;28;20180;-52
2024/01/01 04:43:40;;;;;;;35.40;19.40;;;;;;;4.86;100.00;63438.34;5092819;28;20219;-52
2024/01/01 04:46:06;;;;;;;34.37;20.07;;;;;;;4.87;100.00;63435.00;5092864;28;20271;-54
2024/01/01 04:48:33;;;;;;;32.33;18.90;;;;;;;4.95;100.00;63445.63;5093242;28;20303;-55
2024/01/01 04:50:59;;;;;;;36.53;20.43;;;;;;;5.22;100.00;63475.03;5093067;28;20180;-55
2024/01/01 04:53:24;;;;;;;38.33;19.93;;;;;;;5.35;100.00;63486.69;5074765;28;20223;-55
2024/01/01 04:55:50;;;;;;;37.73;20.23;;;;;;;5.38;100.00;63489.97;5092755;28;20206;-55
2024/01/01 04:58:23;;;;;;;38.27;21.17;;;;;;;5.47;100.00;63501.72;5092949;28;20272;-55
2024/01/01 05:00:48;;;;;;;37.60;20.40;;;;;;;5.28;100.00;63481.56;5092654;28;20266;-55
2024/01/01 05:03:14;;;;;;;33.67;19.63;;;;;;;5.02;100.00;63453.28;5092878;28;20247;-52
2024/01/01 05:05:39;;;;;;;34.43;18.13;;;;;;;4.89;100.00;63439.13;5092635;28;20220;-53
2024/01/01 05:08:05;;;;;;;39.07;20.63;;;;;;;4.90;100.00;63435.22;5092767;28;20397;-53
2024/01/01 05:10:31;;;;;;;34.07;19.47;;;;;;;5.07;100.00;63458.69;5092649;28;20188;-52
2024/01/01 05:12:56;;;;;;;33.67;18.87;;;;;;;5.08;100.00;63459.78;5092664;28;20222;-52
2024/01/01 05:15:22;;;;;;;24.43;14.93;;;;;;;5.02;100.00;63453.28;5092533;28;20594;-53
2024/01/01 05:17:48;;;;;;;24.33;14.83;;;;;;;4.90;100.00;63438.25;5092603;28;20285;-55
2024/01/01 05:20:13;;;;;;;27.57;16.13;;;;;;;5.09;100.00;63460.88;5092325;28;20230;-55
2024/01/01 05:22:40;;;;;;;28.53;15.90;;;;;;;5.06;100.00;63458.16;5092062;28;20231;-55
2024/01/01 05:25:06;;;;;;;40.40;21.87;;;;;;;4.45;100.00;63391.78;5057572;28;20635;-55
2024/01/01 05:27:32;;;;;;;47.93;24.43;;;;;;;4.42;100.00;63388.53;5092362;28;20255;-56
2024/01/01 05:29:58;;;;;;;43.33;23.63;;;;;;;4.55;100.00;63404.63;5073944;28;20223;-54
2024/01/01 05:32:23;;;;;;;40.83;23.13;;;;;;;4.86;100.00;63436.41;5091423;28;20223;-52
2024/01/01 05:34:49;;;;;;;38.07;22.40;;;;;;;4.66;100.00;63412.16;5092022;28;20235;-52
2024/01/01 05:37:14;;;;;;;45.53;23.13;;;;;;;4.59;100.00;63406.47;5074375;28;20298;-53
2024/01/01 05:39:40;;;;;;;38.70;23.40;;;;;;;4.73;100.00;63422.25;5092098;28;20191;-55
2024/01/01 05:42:06;;;;;;;41.77;22.70;;;;;;;4.69;100.00;63417.34;5092157;28;20227;-54
2024/01/01 05:44:31;;;;;;;49.37;26.47;;;;;;;4.59;100.00;63407.03;5073117;28;20666;-53
2024/01/01 05:46:57;;;;;;;51.60;28.47;;;;;;;4.74;100.00;63420.84;5091742;28;20344;-53
2024/01/01 05:49:23;;;;;;;46.97;24.43;;;;;;;4.94;100.00;63444.56;5091942;28;20543;-53
2024/01/01 05:51:49;;;;;;;43.87;23.03;;;;;;;4.81;100.00;63432.91;5091943;28;20301;-54
2024/01/01 05:54:15;;;;;;;42.33;22.13;;;;;;;4.66;100.00;63414.09;5091967;28;20212;-53
2024/01/01 05:56:41;;;;;;;30.03;17.63;;;;;;;4.83;100.00;63432.59;5091673;28;20692;-58
2024/01/01 05:59:07;;;;;;;22.90;14.27;;;;;;;4.82;100.00;63429.56;5091785;28;20289;-53
2024/01/01 06:01:32;;;;;;;22.53;11.77;;;;;;;4.72;100.00;63423.13;5091692;28;20228;-53
2024/01/01 06:03:58;;;;;;;17.57;10.73;;;;;;;4.59;100.00;63407.03;5091522;28;20196;-53
2024/01/01 06:06:24;;;;;;;17.17;10.77;;;;;;;4.42;100.00;63386.03;5091552;28;20180;-52
2024/01/01 06:08:50;;;;;;;18.13;11.30;;;;;;;4.77;100.00;63429.09;5091601;28;20638;-53
2024/01/01 06:11:16;;;;;;;19.47;11.90;;;;;;;4.78;100.00;63424.66;5091575;28;20194;-52
2024/01/01 06:13:42;;;;;;;20.57;12.20;;;;;;;4.85;100.00;63435.31;5091333;28;20219;-53
2024/01/01 06:16:07;;;;;;;19.20;10.27;;;;;;;4.80;100.00;63429.88;5091441;28;20190;-53
2024/01/01 06:18:33;;;;;;;19.37;11.90;;;;;;;4.97;100.00;63448.38;5091270;28;20235;-53
2024/01/01 06:20:58;;;;;;;20.10;11.60;;;;;;;4.93;100.00;63443.47;5091265;28;20271;-52
2024/01/01 06:23:24;;;;;;;23.37;12.37;;;;;;;4.91;100.00;63441.28;5091837;28;20272;-54
2024/01/01 06:25:51;;;;;;;20.80;11.30;;;;;;;4.77;100.00;63429.09;5091476;28;20188;-55
2024/01/01 06:28:18;;;;;;;16.50;11.07;;;;;;;4.67;100.00;63415.72;5091141;28;20211;-55
2024/01/01 06:30:43;;;;;;;20.70;12.07;;;;;;;4.49;100.00;63396.16;5091439;28;20263;-53
2024/01/01 06:33:09;;;;;;;21.43;12.40;;;;;;;4.59;100.00;63407.03;5090601;28;20303;-54
2024/01/01 06:35:34;;;;;;;23.33;12.90;;;;;;;4.50;100.00;63394.75;5091356;28;20212;-53
2024/01/01 06:38:00;;;;;;;21.70;12.60;;;;;;;4.63;100.00;63411.38;5091450;28;20243;-53
2024/01/01 06:40:26;;;;;;;18.03;11.97;;;;;;;4.58;100.00;63408.44;5091189;28;20183;-56
2024/01/01 06:42:51;;;;;;;22.13;12.80;;;;;;;4.61;100.00;63409.19;5091278;28;20208;-55
2024/01/01 06:45:17;;;;;;;22.23;13.07;;;;;;;4.92;100.00;63442.94;5091163;28;20678;-53
2024/01/01 06:47:43;;;;;;;23.07;12.13;;;;;;;5.06;100.00;63455.69;5090830;28;20264;-55
2024/01/01 06:50:09;;;;;;;19.70;11.53;;;;;;;5.02;100.00;63451.31;5072795;28;20188;-54
2024/01/01 06:52:34;;;;;;;22.17;12.33;;;;;;;5.01;100.00;63449.69;5072817;28;20286;-54
2024/01/01 06:55:00;;;;;;;22.33;12.50;;;;;;;5.04;100.00;63453.50;5090921;28;20184;-53
2024/01/01 06:57:26;;;;;;;25.77;12.63;;;;;;;5.12;100.00;63464.16;5090841;28;20214;-53
2024/01/01 06:59:52;;;;;;;28.17;15.60;;;;;;;5.04;100.00;63456.00;5090940;28;20237;-55
2024/01/01 07:02:18;;;;;;;23.80;13.67;;;;;;;5.18;100.00;63467.63;5091247;28;20579;-54
2024/01/01 07:04:43;;;;;;;27.53;15.53;;;;;;;5.29;100.00;63482.13;5072789;28;20244;-54
2024/01/01 07:07:10;;;;;;;29.87;15.77;;;;;;;5.19;100.00;63471.22;5091079;28;20207;-53
2024/01/01 07:09:35;;;;;;;20.53;12.43;;;;;;;5.70;100.00;63524.78;5090795;28;20192;-52
2024/01/01 07:12:20;;;;;;;24.60;14.33;;;;;;;5.87;100.00;63545.28;5072602;28;20305;-57
2024/01/01 07:14:48;;;;;;;27.57;15.27;;;;;;;5.79;100.00;63536.56;5090543;28;20219;-55
2024/01/01 07:17:14;;;;;;;28.43;15.77;;;;;;;5.93;100.00;63551.84;5090729;28;20203;-54
2024/01/01 07:19:40;;;;;;;31.13;16.00;;;;;;;5.86;100.00;63544.19;5090586;28;20274;-58
2024/01/01 07:22:05;;;;;;;21.97;14.83;;;;;;;6.08;100.00;63563.16;5090742;28;20674;-53
2024/01/01 07:24:31;;;;;;;33.33;18.83;;;;;;;6.41;100.00;63604.13;5090615;28;20188;-56
2024/01/01 07:26:57;;;;;;;28.80;18.03;;;;;;;6.49;100.00;63612.28;5090707;28;20236;-54
2024/01/01 07:29:23;;;;;;;29.63;17.87;;;;;;;6.32;100.00;63594.31;5090671;28;20272;-54
2024/01/01 07:31:49;;;;;;;34.67;18.77;;;;;;;6.58;100.00;63620.16;5090549;28;20697;-60
2024/01/01 07:34:19;;;;;;;37.00;22.43;;;;;;;6.57;100.00;63619.06;5090616;28;20214;-56
2024/01/01 07:36:44;;;;;;;42.07;22.90;;;;;;;6.50;100.00;63610.91;5072417;28;20231;-55
2024/01/01 07:39:10;;;;;;;42.83;24.43;;;;;;;6.48;100.00;63609.28;5090366;28;20184;-55
2024/01/01 07:41:36;;;;;;;45.60;27.03;;;;;;;6.77;100.00;63642.81;5090116;28;20241;-55
2024/01/01 07:44:02;;;;;;;54.27;28.43;;;;;;;6.61;100.00;63622.88;5090914;28;20180;-55
2024/01/01 07:46:28;;;;;;;96.57;40.70;;;;;;;6.52;100.00;63613.63;5093694;28;20279;-54
2024/01/01 07:48:55;;;;;;;65.10;32.23;;;;;;;6.90;100.00;63653.94;5093802;28;20200;-58
2024/01/01 07:51:21;;;;;;;84.43;38.07;;;;;;;7.31;100.00;63701.72;5094009;28;20637;-54
2024/01/01 07:53:48;;;;;;;64.93;35.93;;;;;;;7.42;99.93;63713.19;5093740;28;20243;-55
2024/01/01 07:56:13;;;;;;;63.90;34.83;;;;;;;7.41;98.44;63710.13;5093654;28;20723;-55
2024/01/01 07:58:39;;;;;;;58.23;32.97;;;;;;;7.51;96.69;63720.50;5093361;28;20208;-55
2024/01/01 08:01:06;;;;;;;64.70;37.13;;;;;;;7.31;97.90;63701.72;5093524;28;20184;-53
2024/01/01 08:03:32;;;;;;;66.33;37.03;;;;;;;7.10;99.31;63678.81;5075491;28;20295;-55
2024/01/01 08:05:58;;;;;;;58.27;34.87;;;;;;;7.16;99.39;63682.31;5093634;28;20211;-55
2024/01/01 08:08:23;;;;;;;65.73;34.37;;;;;;;7.02;99.75;63667.59;5093186;28;20261;-56
2024/01/01 08:10:49;;;;;;;64.73;36.30;;;;;;;6.61;100.00;63627.88;5075372;28;20556;-54
2024/01/01 08:13:15;;;;;;;54.93;31.83;;;;;;;8.32;100.00;63811.44;5093195;28;20268;-55
2024/01/01 08:15:40;;;;;;;57.10;33.33;;;;;;;7.22;100.00;63691.91;5093249;28;20279;-54
2024/01/01 08:18:06;;;;;;;52.23;30.90;;;;;;;7.36;100.00;63706.63;5093641;28;20258;-54
2024/01/01 08:20:32;;;;;;;57.00;31.67;;;;;;;7.54;100.00;63723.75;5093446;28;20191;-55
2024/01/01 08:22:57;;;;;;;51.27;29.77;;;;;;;7.43;100.00;63714.81;5093124;28;20602;-56
2024/01/01 08:25:23;;;;;;;54.63;29.43;;;;;;;7.39;100.00;63710.44;5093627;28;20191;-52
2024/01/01 08:27:49;;;;;;;48.50;29.23;;;;;;;7.30;100.00;63700.09;5093083;28;20249;-52
2024/01/01 08:30:14;;;;;;;48.23;28.37;;;;;;;7.31;100.00;63701.19;5092988;28;20199;-56
2024/01/01 08:32:40;;;;;;;49.67;28.23;;;;;;;7.28;100.00;63698.44;5093179;28;20219;-56
2024/01/01 08:35:06;;;;;;;48.83;29.60;;;;;;;7.29;100.00;63699.53;5093059;28;20188;-55
2024/01/01 08:37:32;;;;;;;47.63;29.50;;;;;;;7.45;100.00;63713.94;5093253;28;20716;-56
2024/01/01 08:39:58;;;;;;;47.07;27.87;;;;;;;7.34;100.00;63704.44;5093048;28;20180;-54
2024/01/01 08:42:25;;;;;;;48.37;27.80;;;;;;;7.34;100.00;63699.44;5093056;28;20204;-54
2024/01/01 08:44:59;;;;;;;55.20;31.73;;;;;;;7.40;100.00;63711.00;5092770;28;20188;-55
2024/01/01 08:47:24;;;;;;;54.03;29.00;;;;;;;7.42;100.00;63710.66;5092940;28;20231;-54
2024/01/01 08:49:50;;;;;;;48.93;28.70;;;;;;;7.53;100.00;63722.69;5092868;28;20176;-55
2024/01/01 08:52:15;;;;;;;51.50;30.13;;;;;;;7.42;100.00;63710.66;5092543;28;20200;-55
2024/01/01 08:54:41;;;;;;;61.73;33.47;;;;;;;7.44;100.00;63713.41;5092118;28;20215;-55
2024/01/01 08:57:06;;;;;;;57.47;34.37;;;;;;;6.91;100.00;63658.09;5092763;28;20300;-54
2024/01/01 08:59:32;;;;;;;64.70;37.13;;;;;;;7.11;100.00;63679.91;5092657;28;20176;-54
2024/01/01 09:01:57;;;;;;;63.97;37.07;;;;;;;7.04;100.00;63669.22;5074389;28;20247;-53
2024/01/01 09:04:23;;;;;;;62.60;35.20;;;;;;;7.13;100.00;63682.06;5074467;28;20619;-53
2024/01/01 09:06:49;;;;;;;62.87;34.27;;;;;;;7.09;100.00;63674.69;5092369;28;20215;-52
2024/01/01 09:09:14;;;;;;;58.23;34.43;;;;;;;6.93;100.00;63657.25;5092464;28;20196;-54
2024/01/01 09:11:40;;;;;;;65.10;37.30;;;;;;;6.56;100.00;63620.50;5092604;28;20203;-53
2024/01/01 09:14:05;;;;;;;58.80;34.80;;;;;;;6.99;100.00;63663.78;5092362;28;20235;-54
2024/01/01 09:16:31;;;;;;;56.93;35.03;;;;;;;7.14;100.00;63682.63;5074020;28;20195;-53
2024/01/01 09:18:59;;;;;;;62.10;33.83;;;;;;;7.54;100.00;63726.25;5074289;28;20333;-55
2024/01/01 09:21:26;;;;;;;60.73;33.90;;;;;;;7.98;100.00;63773.75;5092403;28;20203;-53
2024/01/01 09:23:52;;;;;;;62.20;34.90;;;;;;;8.33;100.00;63815.03;5092514;28;20202;-57
2024/01/01 09:26:18;;;;;;;57.17;33.27;;;;;;;8.56;97.86;63837.13;5092160;28;20200;-55
2024/01/01 09:28:43;;;;;;;54.50;32.27;;;;;;;8.82;96.67;63863.00;5074167;28;20212;-56
2024/01/01 09:31:09;;;;;;;56.17;32.53;;;;;;;8.75;96.65;63857.84;5092027;28;20184;-55
2024/01/01 09:33:38;;;;;;;60.77;34.33;;;;;;;8.87;96.19;63865.94;5092120;28;20258;-55
2024/01/01 09:36:05;;;;;;;56.60;35.63;;;;;;;9.35;94.08;63920.38;5073839;28;20184;-55
2024/01/01 09:38:30;;;;;;;64.67;35.80;;;;;;;10.09;88.73;64003.81;5091829;28;20322;-55
2024/01/01 09:40:56;;;;;;;59.13;33.30;;;;;;;10.28;87.29;64021.03;5091873;28;20208;-54
2024/01/01 09:43:22;;;;;;;51.93;32.67;;;;;;;10.58;84.42;64051.34;5092227;28;20595;-56
2024/01/01 09:45:50;;;;;;;49.00;28.90;;;;;;;10.35;84.95;64026.16;5074052;28;20180;-55
2024/01/01 09:48:16;;;;;;;49.13;27.47;;;;;;;10.08;86.45;63997.69;5092154;28;20219;-56
2024/01/01 09:50:43;;;;;;;47.40;26.90;;;;;;;9.83;89.16;63972.31;5091830;28;20273;-54
2024/01/01 09:53:10;;;;;;;48.13;26.53;;;;;;;9.66;91.20;63956.78;5091795;28;20227;-54
2024/01/01 09:55:36;;;;;;;43.13;25.43;;;;;;;9.50;93.97;63938.75;5091710;28;20203;-54
2024/01/01 09:58:02;;;;;;;49.17;27.17;;;;;;;9.41;92.23;63926.94;5091590;28;20241;-53
2024/01/01 10:00:28;;;;;;;41.03;25.47;;;;;;;9.63;89.70;63950.44;5091750;28;20266;-54
2024/01/01 10:03:14;;;;;;;48.27;24.47;;;;;;;9.55;90.29;63942.25;5091896;28;20216;-54
2024/01/01 10:05:40;;;;;;;41.77;23.87;;;;;;;9.47;91.76;63932.94;5091264;28;20207;-53
2024/01/01 10:08:14;;;;;;;45.27;23.87;;;;;;;9.49;90.54;63935.69;5090935;28;20626;-55
2024/01/01 10:10:41;;;;;;;35.73;22.00;;;;;;;9.16;92.52;63904.63;5091716;28;20199;-55
2024/01/01 10:13:15;;;;;;;35.53;20.33;;;;;;;8.68;96.75;63849.66;5091912;28;20220;-56
2024/01/01 10:15:42;;;;;;;33.63;19.80;;;;;;;8.70;98.46;63849.34;5091487;28;20207;-55
2024/01/01 10:18:10;;;;;;;35.17;20.67;;;;;;;9.17;95.56;63900.72;5091443;28;20701;-55
2024/01/01 10:20:36;;;;;;;34.80;20.30;;;;;;;9.48;94.84;63934.59;5073195;28;20219;-55
2024/01/01 10:23:23;;;;;;;38.37;20.40;;;;;;;9.61;94.70;63948.81;5073029;28;20406;-55
2024/01/01 10:25:49;;;;;;;33.67;19.33;;;;;;;9.30;95.10;63917.44;5091160;28;20346;-54
2024/01/01 10:28:16;;;;;;;34.67;21.13;;;;;;;9.47;95.13;63935.47;5073118;28;20223;-55
2024/01/01 10:30:47;;;;;;;39.50;21.87;;;;;;;9.74;92.06;63963.00;5091182;28;20184;-56
2024/01/01 10:33:14;;;;;;;35.90;20.93;;;;;;;10.11;88.88;64006.03;5091371;28;20215;-55
2024/01/01 10:35:43;;;;;;;40.97;21.93;;;;;;;10.35;88.57;64029.22;5091150;28;20206;-54
2024/01/01 10:38:13;;;;;;;34.60;19.90;;;;;;;10.17;88.53;64009.53;5091204;28;20616;-55
2024/01/01 10:40:40;;;;;;;30.93;18.17;;;;;;;10.43;86.88;64037.97;5091259;28;20188;-56
2024/01/01 10:43:07;;;;;;;28.40;17.73;;;;;;;10.43;85.50;64037.44;5090738;28;20218;-55
2024/01/01 10:45:33;;;;;;;31.90;17.07;;;;;;;10.29;86.41;64019.59;5090847;28;20183;-55
2024/01/01 10:48:01;;;;;;;29.97;17.60;;;;;;;10.19;89.00;64011.16;5091302;28;20220;-56
2024/01/01 10:50:32;;;;;;;28.50;16.63;;;;;;;10.29;89.61;64022.09;5090917;28;20213;-56
2024/01/01 10:53:41;;;;;;;38.33;20.57;;;;;;;10.15;90.88;64004.81;5091098;28;20211;-57
2024/01/01 10:56:27;;;;;;;35.90;19.40;;;;;;;10.48;88.99;64045.97;5090920;28;20191;-55
2024/01/01 10:59:17;;;;;;;34.73;20.97;;;;;;;11.22;84.01;64121.41;5072984;28;20188;-57
2024/01/01 11:01:44;;;;;;;39.23;23.23;;;;;;;11.16;82.78;64119.88;5090638;28;20199;-56
2024/01/01 11:04:12;;;;;;;39.83;23.67;;;;;;;11.88;79.76;64192.66;5090723;28;20216;-56
2024/01/01 11:06:44;;;;;;;40.77;25.23;;;;;;;12.01;77.14;64209.41;5090490;28;20219;-56
2024/01/01 11:09:19;;;;;;;36.87;22.73;;;;;;;12.83;71.90;64298.78;5090567;28;20168;-55
2024/01/01 11:11:50;;;;;;;39.17;22.03;;;;;;;13.12;70.79;64331.19;5090731;28;20290;-55
2024/01/01 11:14:31;;;;;;;37.07;20.83;;;;;;;13.36;70.06;64354.44;5090794;28;20211;-55